Time;durP1;ratioP1;P1;durP2;ratioP2;P2;SDS_P1;SDS_P2;PMS_P1;PMS_P2;Temp;Humidity;BMP_temperature;BMP_pressure;BME280_temperature;BME280_humidity;BME280_pressure;Samples;Min_cycle;Max_cycle;Signal;HPM_P1;HPM_P2
2022/04/24 02:19:31;;;;;;;;;;;;;;;;;;;;;
2022/04/24 03:23:42;;;;;;;;;;;;;;;;;;;;;
2022/04/24 03:26:14;;;;;;;;;;;;;;;;;;;;;
2022/04/24 03:29:02;;;;;;;7.20;1.17;;;;;;;;;;4977978;28;20268;-92
2022/04/24 03:47:15;;;;;;;13.98;2.40;;;;;;;;;;4843180;29;20030;-93
2022/04/24 04:08:45;;;;;;;;;;;;;;;;;;;;;
2022/04/24 04:11:43;;;;;;;17.73;4.40;;;;;;;;;;4880038;29;20025;-92
2022/04/24 04:17:52;;;;;;;27.13;4.07;;;;;;;;;;4879819;29;20093;-92
2022/04/24 04:24:15;;;;;;;;;;;;;;;;;;;;;
2022/04/24 04:33:56;;;;;;;27.90;3.70;;;;;;;;;;4824578;29;20487;-92
2022/04/24 05:23:32;;;;;;;;;;;;;;;;;;;;;
2022/04/24 05:36:27;;;;;;;;;;;;;;;;;;;;;
2022/04/24 06:01:49;;;;;;;;;;;;;;;;;;;;;
2022/04/24 06:04:47;;;;;;;;;;;;;;;;;;;;;
2022/04/24 07:35:46;;;;;;;;;;;;;;;;;;;;;
2022/04/24 08:19:55;;;;;;;17.52;4.13;;;;;;;;;;4917828;29;20039;-94
2022/04/24 08:32:20;;;;;;;;;;;;;;;;;;;;;
2022/04/24 08:35:27;;;;;;;19.50;4.03;;;;;;;;;;4898626;29;20029;-93
2022/04/24 08:37:58;;;;;;;18.80;4.00;;;;;;;;;;4788720;29;20050;-93
2022/04/24 08:40:27;;;;;;;16.60;3.72;;;;;;;;;;4903525;29;20032;-93
2022/04/24 08:43:04;;;;;;;18.73;4.25;;;;;;;;;;4917103;29;20039;-93
2022/04/24 09:10:27;;;;;;;17.77;3.22;;;;;;;;;;4976273;28;20042;-95
2022/04/24 09:41:15;;;;;;;18.80;4.72;;;;;;;;;;4898388;28;20115;-94
2022/04/24 10:53:20;;;;;;;;;;;;;;;;;;;;;
2022/04/24 11:01:58;;;;;;;11.68;2.65;;;;;;;;;;4959829;29;20066;-92
2022/04/24 11:11:06;;;;;;;12.82;3.00;;;;;;;;;;4959721;28;20034;-93
2022/04/24 11:13:44;;;;;;;12.35;2.63;;;;;;;;;;4961729;28;20065;-92
2022/04/24 11:22:13;;;;;;;12.48;2.72;;;;;;;;;;4972914;28;20526;-94
2022/04/24 11:24:40;;;;;;;12.48;3.58;;;;;;;;;;4961255;28;20023;-91
2022/04/24 11:27:18;;;;;;;13.40;2.83;;;;;;;;;;4961096;28;20117;-93
2022/04/24 11:30:16;;;;;;;12.52;2.40;;;;;;;;;;4961040;28;20027;-93
2022/04/24 11:32:51;;;;;;;13.40;3.35;;;;;;;;;;4954113;28;20089;-92
2022/04/24 11:35:53;;;;;;;18.67;3.05;;;;;;;;;;4961253;28;20546;-93
2022/04/24 11:38:36;;;;;;;13.25;2.63;;;;;;;;;;4889574;29;20233;-93
2022/04/24 11:41:29;;;;;;;13.05;2.78;;;;;;;;;;4899306;28;20027;-92
2022/04/24 11:44:03;;;;;;;11.73;2.47;;;;;;;;;;4960880;28;20023;-92
2022/04/24 11:52:38;;;;;;;13.20;2.75;;;;;;;;;;4977797;28;20050;-93
2022/04/24 11:55:13;;;;;;;14.95;2.78;;;;;;;;;;4960487;28;20034;-91
2022/04/24 11:57:45;;;;;;;10.48;2.67;;;;;;;;;;4961275;28;20494;-92
2022/04/24 12:00:18;;;;;;;15.30;2.95;;;;;;;;;;4960018;28;20033;-91
2022/04/24 12:02:45;;;;;;;12.50;2.72;;;;;;;;;;4960672;28;20023;-92
2022/04/24 12:05:13;;;;;;;8.65;2.50;;;;;;;;;;4961150;28;20018;-91
2022/04/24 12:08:06;;;;;;;11.35;3.38;;;;;;;;;;4960449;28;20022;-92
2022/04/24 12:10:35;;;;;;;;;;;;;;;;;;4941757;29;20047;-92
2022/04/24 12:13:07;;;;;;;7.45;2.97;;;;;;;;;;4941387;28;19957;-92
2022/04/24 12:15:34;;;;;;;;;;;;;;;;;;4942129;29;20094;-92
2022/04/24 12:18:13;;;;;;;13.60;3.38;;;;;;;;;;4941154;29;19907;-92
2022/04/24 12:20:44;;;;;;;11.23;3.53;;;;;;;;;;4940891;29;20097;-92
2022/04/24 12:23:15;;;;;;;8.13;2.40;;;;;;;;;;4940854;29;20082;-92
2022/04/24 12:25:53;;;;;;;9.80;2.28;;;;;;;;;;4940498;29;20020;-92
2022/04/24 12:28:32;;;;;;;12.25;3.35;;;;;;;;;;4941035;29;20019;-92
2022/04/24 12:31:01;;;;;;;8.00;2.63;;;;;;;;;;4940821;29;20053;-92
2022/04/24 12:33:45;;;;;;;9.38;2.72;;;;;;;;;;4940952;29;20045;-92
2022/04/24 12:36:15;;;;;;;16.00;3.38;;;;;;;;;;4940718;29;20030;-92
2022/04/24 12:38:55;;;;;;;14.77;2.70;;;;;;;;;;4940833;29;20031;-92
2022/04/24 12:41:31;;;;;;;11.15;2.92;;;;;;;;;;4941090;29;20023;-91
2022/04/24 12:44:11;;;;;;;8.90;2.28;;;;;;;;;;4940995;29;20449;-92
2022/04/24 12:46:37;;;;;;;11.43;2.80;;;;;;;;;;4941102;29;20023;-92
2022/04/24 12:49:03;;;;;;;9.38;2.42;;;;;;;;;;4940585;29;20031;-92
2022/04/24 12:51:29;;;;;;;8.60;2.70;;;;;;;;;;4940731;29;20480;-92
2022/04/24 12:54:03;;;;;;;11.40;2.50;;;;;;;;;;4940584;29;20122;-92
2022/04/24 12:56:37;;;;;;;8.35;2.55;;;;;;;;;;4941061;29;20027;-92
2022/04/24 12:59:04;;;;;;;9.10;2.10;;;;;;;;;;4940691;28;20031;-92
2022/04/24 13:01:30;;;;;;;7.03;2.20;;;;;;;;;;4941041;29;20074;-92
2022/04/24 13:03:56;;;;;;;8.20;2.33;;;;;;;;;;4940202;29;20027;-92
2022/04/24 13:06:25;;;;;;;8.20;2.35;;;;;;;;;;4940082;29;20063;-93
2022/04/24 13:08:57;;;;;;;8.00;1.83;;;;;;;;;;4940118;29;20047;-93
2022/04/24 13:11:31;;;;;;;10.65;2.55;;;;;;;;;;4939674;29;20480;-93
2022/04/24 13:14:13;;;;;;;;;;;;;;;;;;;;;
2022/04/24 13:19:30;;;;;;;8.60;1.77;;;;;;;;;;4957153;29;20038;-93
2022/04/24 13:21:57;;;;;;;8.13;2.17;;;;;;;;;;4939879;29;20035;-93
2022/04/24 13:24:45;;;;;;;;;;;;;;;;;;;;;
2022/04/24 13:27:34;;;;;;;11.07;2.13;;;;;;;;;;4956624;29;20384;-94
2022/04/24 13:30:14;;;;;;;7.20;1.73;;;;;;;;;;4936716;29;20035;-93
2022/04/24 13:36:13;;;;;;;4.93;1.58;;;;;;;;;;4957435;29;20563;-95
2022/04/24 13:55:17;;;;;;;4.38;0.80;;;;;;;;;;4842296;29;20033;-94
2022/04/24 13:57:52;;;;;;;1.80;0.60;;;;;;;;;;4862957;29;20033;-94
2022/04/24 14:04:12;;;;;;;;;;;;;;;;;;;;;
2022/04/24 14:06:39;;;;;;;2.05;0.60;;;;;;;;;;4941175;29;20049;-95
2022/04/24 14:19:02;;;;;;;2.58;0.75;;;;;;;;;;4954662;29;20039;-93
2022/04/24 14:21:51;;;;;;;7.57;1.30;;;;;;;;;;4940239;29;20043;-94
2022/04/24 14:27:36;;;;;;;2.35;0.70;;;;;;;;;;4935570;29;20032;-93
2022/04/24 14:30:22;;;;;;;2.30;1.05;;;;;;;;;;4918854;29;20035;-93
2022/04/24 14:36:02;;;;;;;4.43;1.10;;;;;;;;;;4916365;29;20028;-93
2022/04/24 14:56:33;;;;;;;4.82;1.05;;;;;;;;;;4958366;29;20131;-93
2022/04/24 14:59:00;;;;;;;3.28;1.17;;;;;;;;;;4939074;29;20039;-93
2022/04/24 15:01:27;;;;;;;4.28;1.08;;;;;;;;;;4941737;29;20030;-93
2022/04/24 15:04:05;;;;;;;7.30;1.10;;;;;;;;;;4942436;29;20106;-93
2022/04/24 15:06:43;;;;;;;5.78;1.10;;;;;;;;;;4942154;29;20035;-93
2022/04/24 15:09:27;;;;;;;4.63;1.05;;;;;;;;;;4951398;28;20045;-93
2022/04/24 15:12:22;;;;;;;5.32;1.13;;;;;;;;;;4942258;29;20034;-93
2022/04/24 15:15:13;;;;;;;7.97;1.42;;;;;;;;;;4959202;29;20094;-93
2022/04/24 15:17:39;;;;;;;6.35;1.33;;;;;;;;;;4941768;29;20436;-93
2022/04/24 15:20:16;;;;;;;4.50;1.42;;;;;;;;;;4941944;29;20032;-93
2022/04/24 15:22:50;;;;;;;2.90;1.10;;;;;;;;;;4942873;29;20041;-93
2022/04/24 15:25:55;;;;;;;5.80;1.35;;;;;;;;;;4943056;29;20055;-93
2022/04/24 15:28:21;;;;;;;3.50;1.40;;;;;;;;;;4942077;29;20019;-92
2022/04/24 15:30:57;;;;;;;6.97;1.30;;;;;;;;;;4939886;29;20039;-92
2022/04/24 15:33:23;;;;;;;5.00;1.30;;;;;;;;;;4941787;29;20031;-93
2022/04/24 15:36:11;;;;;;;4.53;1.10;;;;;;;;;;4942060;29;20019;-93
2022/04/24 15:38:56;;;;;;;4.97;1.50;;;;;;;;;;4942343;29;20042;-92
2022/04/24 15:41:22;;;;;;;6.78;1.30;;;;;;;;;;4941937;29;20399;-92
2022/04/24 15:43:48;;;;;;;5.43;1.27;;;;;;;;;;4941791;29;20023;-93
2022/04/24 15:46:24;;;;;;;6.32;1.38;;;;;;;;;;4942133;29;20110;-92
2022/04/24 15:49:27;;;;;;;4.75;1.33;;;;;;;;;;4942845;29;20496;-93
2022/04/24 15:52:06;;;;;;;;;;;;;;;;;;;;;
2022/04/24 15:57:55;;;;;;;;;;;;;;;;;;;;;
2022/04/24 16:00:28;;;;;;;7.75;2.15;;;;;;;;;;4953560;28;20048;-93
2022/04/24 16:06:01;;;;;;;3.92;1.33;;;;;;;;;;4941124;29;20566;-93
2022/04/24 16:08:34;;;;;;;6.25;1.35;;;;;;;;;;4941903;29;20534;-92
2022/04/24 16:11:12;;;;;;;7.47;1.65;;;;;;;;;;4940919;29;20035;-93
2022/04/24 16:17:12;;;;;;;7.72;1.70;;;;;;;;;;4918187;29;20071;-92
2022/04/24 16:19:44;;;;;;;5.03;1.58;;;;;;;;;;4901831;29;20036;-93
2022/04/24 16:22:24;;;;;;;6.82;1.13;;;;;;;;;;4926966;29;20039;-92
2022/04/24 16:25:13;;;;;;;9.82;1.55;;;;;;;;;;4941415;29;20023;-93
2022/04/24 16:28:36;;;;;;;;;;;;;;;;;;;;;
2022/04/24 16:31:33;;;;;;;12.70;1.60;;;;;;;;;;4958061;29;20027;-92
2022/04/24 16:34:05;;;;;;;9.48;1.75;;;;;;;;;;4935114;29;20050;-92
2022/04/24 16:36:37;;;;;;;8.43;1.50;;;;;;;;;;4941238;29;20490;-93
2022/04/24 16:39:06;;;;;;;7.47;1.63;;;;;;;;;;4940720;29;20032;-92
2022/04/24 16:41:35;;;;;;;11.27;1.70;;;;;;;;;;4940978;29;20019;-93
2022/04/24 16:44:09;;;;;;;5.65;1.52;;;;;;;;;;4940496;29;20043;-93
2022/04/24 16:46:35;;;;;;;8.15;1.55;;;;;;;;;;4940821;29;20102;-92
2022/04/24 16:49:04;;;;;;;5.32;1.42;;;;;;;;;;4940343;29;20432;-93
2022/04/24 16:59:47;;;;;;;8.20;1.45;;;;;;;;;;4956103;29;20034;-93
2022/04/24 17:02:13;;;;;;;11.77;1.90;;;;;;;;;;4939806;29;20023;-92
2022/04/24 17:04:41;;;;;;;9.65;1.88;;;;;;;;;;4940120;29;20070;-92
2022/04/24 17:07:08;;;;;;;21.20;2.45;;;;;;;;;;4936926;29;20020;-92
2022/04/24 17:09:34;;;;;;;14.30;1.63;;;;;;;;;;4937640;28;20512;-92
2022/04/24 17:12:03;;;;;;;29.38;2.55;;;;;;;;;;4958559;28;20066;-92
2022/04/24 17:14:29;;;;;;;5.35;1.60;;;;;;;;;;4958622;28;20484;-92
2022/04/24 17:16:58;;;;;;;9.50;1.70;;;;;;;;;;4964182;28;20360;-93
2022/04/24 17:19:24;;;;;;;5.38;1.65;;;;;;;;;;4958942;28;20460;-92
2022/04/24 17:22:01;;;;;;;5.60;1.65;;;;;;;;;;4958861;28;20053;-93
2022/04/24 17:24:27;;;;;;;5.15;1.98;;;;;;;;;;4958895;28;20027;-92
2022/04/24 17:26:59;;;;;;;8.05;1.50;;;;;;;;;;4965473;28;20022;-92
2022/04/24 17:29:26;;;;;;;5.05;1.27;;;;;;;;;;4978346;28;20036;-92
2022/04/24 17:32:08;;;;;;;7.03;1.83;;;;;;;;;;4978063;28;20411;-92
2022/04/24 17:37:25;;;;;;;12.25;1.88;;;;;;;;;;4994868;28;20030;-93
2022/04/24 17:39:59;;;;;;;3.55;1.15;;;;;;;;;;4978102;28;20054;-93
2022/04/24 17:42:27;;;;;;;8.68;2.28;;;;;;;;;;4977736;28;20062;-93
2022/04/24 17:45:05;;;;;;;5.93;1.40;;;;;;;;;;4978501;28;20030;-93
2022/04/24 17:47:42;;;;;;;;;;;;;;;;;;;;;
2022/04/24 17:50:09;;;;;;;5.10;1.13;;;;;;;;;;4975458;28;20023;-91
2022/04/24 17:52:38;;;;;;;5.07;1.15;;;;;;;;;;4958167;28;20055;-91
2022/04/24 17:55:05;;;;;;;5.40;1.33;;;;;;;;;;4958605;28;20039;-92
2022/04/24 17:57:34;;;;;;;5.30;1.50;;;;;;;;;;4958525;28;20031;-92
2022/04/24 18:00:12;;;;;;;4.72;1.15;;;;;;;;;;4958079;28;20502;-92
2022/04/24 18:02:48;;;;;;;7.57;1.50;;;;;;;;;;4960778;28;20062;-92
2022/04/24 18:05:25;;;;;;;;;;;;;;;;;;;;;
2022/04/24 18:07:51;;;;;;;5.28;1.55;;;;;;;;;;4975124;28;20029;-93
2022/04/24 18:10:17;;;;;;;2.95;1.23;;;;;;;;;;4957849;28;20121;-93
2022/04/24 18:12:44;;;;;;;4.65;1.27;;;;;;;;;;4958582;28;20061;-93
2022/04/24 18:15:10;;;;;;;9.02;1.70;;;;;;;;;;4958063;28;20038;-92
2022/04/24 18:17:36;;;;;;;10.25;1.83;;;;;;;;;;4958193;28;20031;-93
2022/04/24 18:20:03;;;;;;;9.43;2.60;;;;;;;;;;4958124;28;20434;-92
2022/04/24 18:22:29;;;;;;;4.90;1.38;;;;;;;;;;4958068;28;20034;-93
2022/04/24 18:24:58;;;;;;;4.38;1.52;;;;;;;;;;4949389;28;20024;-93
2022/04/24 18:27:27;;;;;;;6.50;1.60;;;;;;;;;;4974562;28;20019;-92
2022/04/24 18:29:55;;;;;;;4.25;1.58;;;;;;;;;;4975129;28;20031;-93
2022/04/24 18:32:22;;;;;;;6.30;1.88;;;;;;;;;;4974620;28;20038;-92
2022/04/24 18:34:48;;;;;;;8.77;2.53;;;;;;;;;;4972519;28;20027;-92
2022/04/24 18:39:59;;;;;;;5.50;1.90;;;;;;;;;;4972198;28;20097;-92
2022/04/24 18:42:25;;;;;;;6.55;1.90;;;;;;;;;;4959230;28;20028;-92
2022/04/24 18:44:51;;;;;;;8.52;2.50;;;;;;;;;;4958725;28;20024;-92
2022/04/24 18:47:18;;;;;;;6.05;2.00;;;;;;;;;;4959183;28;20476;-92
2022/04/24 18:49:46;;;;;;;13.05;2.20;;;;;;;;;;4961454;28;20022;-92
2022/04/24 18:52:12;;;;;;;4.80;1.85;;;;;;;;;;4961521;28;20118;-93
2022/04/24 18:54:39;;;;;;;4.97;1.65;;;;;;;;;;4961162;28;20126;-92
2022/04/24 18:57:07;;;;;;;6.25;1.40;;;;;;;;;;4961266;28;20035;-93
2022/04/24 18:59:36;;;;;;;4.25;1.40;;;;;;;;;;4961064;28;20058;-92
2022/04/24 19:02:04;;;;;;;4.03;1.70;;;;;;;;;;4961370;28;20023;-92
2022/04/24 19:07:33;;;;;;;10.95;5.00;;;;;;;;;;4978452;28;20042;-92
2022/04/24 19:13:03;;;;;;;10.60;4.32;;;;;;;;;;4978590;28;20125;-92
2022/04/24 19:15:29;;;;;;;7.25;3.15;;;;;;;;;;4961009;28;20451;-92
2022/04/24 19:20:42;;;;;;;6.22;1.90;;;;;;;;;;4967480;28;20034;-92
2022/04/24 19:23:09;;;;;;;9.10;2.30;;;;;;;;;;4960919;28;20039;-93
2022/04/24 19:26:12;;;;;;;7.85;2.40;;;;;;;;;;4961165;28;20471;-93
2022/04/24 19:29:06;;;;;;;5.97;1.50;;;;;;;;;;4957512;29;20059;-93
2022/04/24 19:31:45;;;;;;;;;;;;;;;;;;;;;
2022/04/24 19:46:57;;;;;;;7.00;2.20;;;;;;;;;;4919093;29;20116;-93
2022/04/24 19:52:44;;;;;;;6.35;1.77;;;;;;;;;;4917694;29;20028;-92
2022/04/24 19:55:44;;;;;;;3.83;1.33;;;;;;;;;;4902974;29;20098;-93
2022/04/24 19:58:36;;;;;;;4.45;1.63;;;;;;;;;;4902498;29;20031;-93
2022/04/24 20:01:02;;;;;;;4.30;1.65;;;;;;;;;;4902633;29;20119;-93
2022/04/24 20:03:41;;;;;;;8.10;2.25;;;;;;;;;;4902516;29;20024;-92
2022/04/24 20:06:28;;;;;;;4.05;1.30;;;;;;;;;;4953180;28;20031;-93
2022/04/24 20:09:13;;;;;;;2.40;0.90;;;;;;;;;;4959827;28;20547;-93
2022/04/24 20:12:10;;;;;;;;;;;;;;;;;;;;;
2022/04/24 20:14:36;;;;;;;6.25;1.70;;;;;;;;;;4969726;28;20049;-93
2022/04/24 20:17:24;;;;;;;4.82;1.42;;;;;;;;;;4959888;28;20037;-92
2022/04/24 20:19:50;;;;;;;5.53;1.42;;;;;;;;;;4960049;28;20479;-93
2022/04/24 20:25:25;;;;;;;6.88;1.60;;;;;;;;;;4977012;28;20035;-93
2022/04/24 20:28:21;;;;;;;10.52;1.30;;;;;;;;;;4960069;28;20121;-93
2022/04/24 20:30:47;;;;;;;5.63;1.67;;;;;;;;;;4960282;28;20023;-93
2022/04/24 20:33:13;;;;;;;5.93;1.40;;;;;;;;;;4960108;28;20027;-93
2022/04/24 20:35:40;;;;;;;3.33;0.98;;;;;;;;;;4959893;28;20034;-93
2022/04/24 20:38:09;;;;;;;2.40;1.00;;;;;;;;;;4959576;28;20094;-93
2022/04/24 20:40:35;;;;;;;4.40;1.27;;;;;;;;;;4959975;28;20487;-93
2022/04/24 20:43:04;;;;;;;4.47;1.10;;;;;;;;;;4959893;28;20027;-92
2022/04/24 20:45:35;;;;;;;2.13;0.80;;;;;;;;;;4960098;28;20472;-93
2022/04/24 20:48:01;;;;;;;4.05;1.33;;;;;;;;;;4959539;28;20023;-92
2022/04/24 20:50:40;;;;;;;5.00;1.83;;;;;;;;;;4959876;28;20030;-94
2022/04/24 20:53:12;;;;;;;4.15;1.60;;;;;;;;;;4959621;28;20035;-94
2022/04/24 20:55:48;;;;;;;;;;;;;;;;;;;;;
2022/04/24 20:58:15;;;;;;;3.75;1.85;;;;;;;;;;4977709;28;19917;-95
2022/04/24 21:00:45;;;;;;;5.40;1.80;;;;;;;;;;4959418;28;20030;-95
2022/04/24 21:03:35;;;;;;;6.43;2.05;;;;;;;;;;4959703;28;20019;-95
2022/04/24 21:06:01;;;;;;;5.13;1.55;;;;;;;;;;4960226;28;20050;-93
2022/04/24 21:08:27;;;;;;;5.03;1.60;;;;;;;;;;4959247;28;20023;-94
2022/04/24 21:10:53;;;;;;;6.93;2.10;;;;;;;;;;4959052;28;20047;-93
2022/04/24 21:13:19;;;;;;;2.85;1.25;;;;;;;;;;4958609;28;20033;-93
2022/04/24 21:15:45;;;;;;;3.17;1.40;;;;;;;;;;4959237;28;20023;-94
2022/04/24 21:18:12;;;;;;;2.33;1.25;;;;;;;;;;4959350;28;20538;-94
2022/04/24 21:20:39;;;;;;;2.92;1.23;;;;;;;;;;4959107;28;20387;-93
2022/04/24 21:23:05;;;;;;;4.95;1.13;;;;;;;;;;4959366;28;20035;-93
2022/04/24 21:25:31;;;;;;;3.78;1.15;;;;;;;;;;4959002;28;20376;-95
2022/04/24 21:28:00;;;;;;;2.88;1.25;;;;;;;;;;4959488;28;20029;-92
2022/04/24 21:30:26;;;;;;;7.68;1.70;;;;;;;;;;4958822;28;20029;-93
2022/04/24 21:32:52;;;;;;;6.88;2.00;;;;;;;;;;4959096;28;20038;-94
2022/04/24 21:35:18;;;;;;;6.72;2.40;;;;;;;;;;4958903;28;20023;-94
2022/04/24 21:37:45;;;;;;;6.78;2.20;;;;;;;;;;4958990;28;20539;-93
2022/04/24 21:40:11;;;;;;;6.85;2.95;;;;;;;;;;4958836;28;20542;-93
2022/04/24 21:42:37;;;;;;;5.75;2.20;;;;;;;;;;4959042;28;20122;-93
2022/04/24 21:45:04;;;;;;;4.38;1.63;;;;;;;;;;4958911;28;20102;-93
2022/04/24 21:47:30;;;;;;;7.05;1.90;;;;;;;;;;4958245;28;20022;-92
2022/04/24 21:49:56;;;;;;;2.85;1.10;;;;;;;;;;4958810;28;20026;-94
2022/04/24 21:52:22;;;;;;;7.97;1.35;;;;;;;;;;4958906;28;20509;-93
2022/04/24 21:54:48;;;;;;;3.35;1.25;;;;;;;;;;4958837;28;20049;-93
2022/04/24 21:57:14;;;;;;;4.05;1.00;;;;;;;;;;4959161;28;20053;-93
2022/04/24 21:59:41;;;;;;;5.53;1.20;;;;;;;;;;4960896;28;20023;-93
2022/04/24 22:04:51;;;;;;;2.78;1.20;;;;;;;;;;4980250;28;20089;-92
2022/04/24 22:07:17;;;;;;;2.10;1.20;;;;;;;;;;4962645;28;20467;-94
2022/04/24 22:09:44;;;;;;;4.00;1.10;;;;;;;;;;4962475;28;20042;-94
2022/04/24 22:12:10;;;;;;;2.80;0.88;;;;;;;;;;4962564;28;20117;-94
2022/04/24 22:14:36;;;;;;;3.90;1.15;;;;;;;;;;4962405;28;20039;-92
2022/04/24 22:17:03;;;;;;;1.63;0.70;;;;;;;;;;4962327;28;20034;-93
2022/04/24 22:19:29;;;;;;;1.95;0.50;;;;;;;;;;4962481;28;20165;-93
2022/04/24 22:24:40;;;;;;;2.90;0.88;;;;;;;;;;4979847;28;20030;-92
2022/04/24 22:27:08;;;;;;;1.70;0.50;;;;;;;;;;4961780;28;20030;-93
2022/04/24 22:29:35;;;;;;;1.92;0.52;;;;;;;;;;4961862;28;20105;-93
2022/04/24 22:32:01;;;;;;;1.08;0.63;;;;;;;;;;4962330;28;20031;-93
2022/04/24 22:34:28;;;;;;;1.77;0.50;;;;;;;;;;4962088;28;20030;-94
2022/04/24 22:36:54;;;;;;;1.52;0.50;;;;;;;;;;4961997;28;20487;-93
2022/04/24 22:39:24;;;;;;;1.27;0.60;;;;;;;;;;4962207;28;20037;-92
2022/04/24 22:41:51;;;;;;;1.63;0.77;;;;;;;;;;4961808;28;20101;-93
2022/04/24 22:44:17;;;;;;;1.25;0.60;;;;;;;;;;4962012;28;20388;-93
2022/04/24 22:46:47;;;;;;;2.28;0.70;;;;;;;;;;4961949;28;20105;-93
2022/04/24 22:49:13;;;;;;;1.27;0.40;;;;;;;;;;4961929;28;20117;-93
2022/04/24 22:51:40;;;;;;;1.00;0.38;;;;;;;;;;4962043;28;20023;-93
2022/04/24 22:54:07;;;;;;;0.52;0.28;;;;;;;;;;4961516;28;20498;-92
2022/04/24 22:56:33;;;;;;;0.90;0.40;;;;;;;;;;4961496;28;20384;-94
2022/04/24 22:58:59;;;;;;;0.38;0.30;;;;;;;;;;4961672;28;20081;-94
2022/04/24 23:01:26;;;;;;;1.25;0.50;;;;;;;;;;4961381;28;20026;-93
2022/04/24 23:03:52;;;;;;;2.13;0.50;;;;;;;;;;4961482;28;20546;-96
2022/04/24 23:06:19;;;;;;;2.75;0.60;;;;;;;;;;4962063;28;20455;-94
2022/04/24 23:08:46;;;;;;;1.40;0.70;;;;;;;;;;4961109;28;20030;-93
2022/04/24 23:11:12;;;;;;;1.77;0.57;;;;;;;;;;4960881;28;20042;-93
2022/04/24 23:13:38;;;;;;;4.47;0.50;;;;;;;;;;4961205;28;20026;-93
2022/04/24 23:16:05;;;;;;;2.50;0.60;;;;;;;;;;4961066;28;20026;-93
2022/04/24 23:21:16;;;;;;;2.83;1.00;;;;;;;;;;4969917;28;20130;-93
2022/04/24 23:23:43;;;;;;;0.68;0.20;;;;;;;;;;4961040;28;20023;-93
2022/04/24 23:26:09;;;;;;;0.90;0.30;;;;;;;;;;4960777;28;20503;-92
2022/04/24 23:28:36;;;;;;;0.93;0.28;;;;;;;;;;4960936;28;20057;-93
2022/04/24 23:31:04;;;;;;;1.23;0.30;;;;;;;;;;4960803;28;20414;-92
2022/04/24 23:33:31;;;;;;;0.57;0.30;;;;;;;;;;4960646;28;20026;-93
2022/04/24 23:35:57;;;;;;;0.88;0.50;;;;;;;;;;4960627;28;20023;-92
2022/04/24 23:38:23;;;;;;;2.47;0.90;;;;;;;;;;4960937;28;20030;-93
2022/04/24 23:40:49;;;;;;;1.23;0.80;;;;;;;;;;4960688;28;20023;-93
2022/04/24 23:43:15;;;;;;;1.83;0.60;;;;;;;;;;4960655;28;20077;-93
2022/04/24 23:45:41;;;;;;;2.47;1.00;;;;;;;;;;4960667;28;20026;-94
2022/04/24 23:48:08;;;;;;;4.10;1.48;;;;;;;;;;4960545;28;20029;-94
2022/04/24 23:50:34;;;;;;;3.70;1.25;;;;;;;;;;4960651;28;20030;-93
2022/04/24 23:53:00;;;;;;;1.80;0.88;;;;;;;;;;4960467;28;20023;-93
2022/04/24 23:55:26;;;;;;;2.17;0.77;;;;;;;;;;4960430;28;20027;-93
2022/04/24 23:57:52;;;;;;;1.52;0.40;;;;;;;;;;4960317;28;20166;-93
